1852 NOT_NAMED (1852001S13076)


IBTrACS version v04r00. Visit IBTrACS website for data access.
Please direct all questions to the IBTrACS Q and A forum

Storm track - Intensity - Wind Radii - Intensity Data - Source Data - All data

Summary Information

Storm ID 1852001S13076
Start Jan 1 06Z
End Jan 8 06Z
ATCF IDs
Track status Best track data.

Storm track plot

Map of storm track

Intensity plots

No Intensity information for this storm


Radial wind information

No radial wind information for this storm


Position and Intensity Table

BASIN ISO_TIME_________ NATURE LAT LON
degrees north degrees east
SI 1852-01-01 06:00:00 NR -12.70 76.30
SI 09:00:00 NR -12.91 75.57
SI 12:00:00 NR -13.12 74.86
SI 15:00:00 NR -13.32 74.16
SI 18:00:00 NR -13.50 73.50
SI 21:00:00 NR -13.67 72.87
SI 1852-01-02 00:00:00 NR -13.83 72.26
SI 03:00:00 NR -14.01 71.65
SI 06:00:00 NR -14.20 71.00
SI 09:00:00 NR -14.44 70.28
SI 12:00:00 NR -14.69 69.52
SI 15:00:00 NR -14.95 68.76
SI 18:00:00 NR -15.20 68.00
SI 21:00:00 NR -15.39 67.32
SI 1852-01-03 00:00:00 NR -15.58 66.64
SI 03:00:00 NR -15.77 65.95
SI 06:00:00 NR -16.00 65.20
SI 09:00:00 NR -16.29 64.35
SI 12:00:00 NR -16.61 63.44
SI 15:00:00 NR -16.95 62.51
SI 18:00:00 NR -17.30 61.60
SI 21:00:00 NR -17.68 60.69
SI 1852-01-04 00:00:00 NR -18.05 59.82
SI 03:00:00 NR -18.40 59.01
SI 06:00:00 NR -18.70 58.30
SI 09:00:00 NR -18.90 57.73
SI 12:00:00 NR -19.04 57.27
SI 15:00:00 NR -19.17 56.87
SI 18:00:00 NR -19.30 56.50
SI 21:00:00 NR -19.47 56.13
SI 1852-01-05 00:00:00 NR -19.65 55.76
SI 03:00:00 NR -19.86 55.36
SI 06:00:00 NR -20.10 54.90
SI 09:00:00 NR -20.35 54.31
SI 12:00:00 NR -20.63 53.66
SI 15:00:00 NR -20.95 52.98
SI 18:00:00 NR -21.30 52.30
SI 21:00:00 NR -21.68 51.64
SI 1852-01-06 00:00:00 NR -22.09 51.00
SI 03:00:00 NR -22.53 50.41
SI 06:00:00 NR -23.00 49.90
SI 09:00:00 NR -23.47 49.45
SI 12:00:00 NR -23.96 49.09
SI 15:00:00 NR -24.47 48.81
SI 18:00:00 NR -25.00 48.60
SI 21:00:00 NR -25.59 48.44
SI 1852-01-07 00:00:00 NR -26.19 48.34
SI 03:00:00 NR -26.74 48.30
SI 06:00:00 NR -27.20 48.30
SI 09:00:00 NR -27.51 48.29
SI 12:00:00 NR -27.72 48.31
SI 15:00:00 NR -27.87 48.35
SI 18:00:00 NR -28.00 48.40
SI 21:00:00 NR -28.14 48.45
SI 1852-01-08 00:00:00 NR -28.29 48.50
SI 03:00:00 NR -28.44 48.55
SI 06:00:00 NR -28.60 48.60

Source Information

Agency Information
USA
TOKYO
CMA
HKO
NEWDELHI
REUNION
BOM
NADI
WELLINGTON
DS824
TD9636 cons_worldwide_trop_cyclone_18710101-19891231-005:Line=63
TD9635
NEUMANN
MLC

All available IBTrACS Data

SEASON BASIN SUBBASIN ISO_TIME_________ NATURE LAT LON DIST2LAND LANDFALL IFLAG USA SSHS TD9636 LAT TD9636 LON TD9636 STAGE STORM SPEED STORM DIR
Year degrees north degrees east km km 1 degrees north degrees east kts degrees
1852 SI MM 1852-01-01 06:00:00 NR -12.70 76.30 2137 2068 __________O___ -1 -12.70 76.30 7 15 253
1852 SI MM 09:00:00 NR -12.91 75.57 2068 1990 __________P___ -1 -12.91 75.57 7 15 253
1852 SI MM 12:00:00 NR -13.12 74.86 1990 1912 __________P___ -1 -13.12 74.86 7 14 254
1852 SI MM 15:00:00 NR -13.32 74.16 1912 1834 __________P___ -1 -13.32 74.16 7 14 254
1852 SI MM 18:00:00 NR -13.50 73.50 1834 1766 __________O___ -1 -13.50 73.50 7 13 254
1852 SI MM 21:00:00 NR -13.67 72.87 1766 1703 __________P___ -1 -13.67 72.87 7 12 254
1852 SI MM 1852-01-02 00:00:00 NR -13.83 72.26 1703 1635 __________P___ -1 -13.83 72.26 7 12 254
1852 SI MM 03:00:00 NR -14.01 71.65 1626 1558 __________P___ -1 -14.01 71.65 7 13 253
1852 SI MM 06:00:00 NR -14.20 71.00 1558 1481 __________O___ -1 -14.20 71.00 7 14 252
1852 SI MM 09:00:00 NR -14.44 70.28 1481 1398 __________P___ -1 -14.44 70.28 7 15 251
1852 SI MM 12:00:00 NR -14.69 69.52 1389 1312 __________P___ -1 -14.69 69.52 7 16 251
1852 SI MM 15:00:00 NR -14.95 68.76 1307 1221 __________P___ -1 -14.95 68.76 7 16 251
1852 SI MM 18:00:00 NR -15.20 68.00 1221 1153 __________O___ -1 -15.20 68.00 7 15 252
1852 SI MM 21:00:00 NR -15.39 67.32 1144 1077 __________P___ -1 -15.39 67.32 7 14 254
1852 SI MM 1852-01-03 00:00:00 NR -15.58 66.64 1067 1000 __________P___ -1 -15.58 66.64 7 14 254
1852 SI MM 03:00:00 NR -15.77 65.95 991 915 __________P___ -1 -15.77 65.95 7 15 253
1852 SI MM 06:00:00 NR -16.00 65.20 915 825 __________O___ -1 -16.00 65.20 7 16 252
1852 SI MM 09:00:00 NR -16.29 64.35 816 726 __________P___ -1 -16.29 64.35 7 18 250
1852 SI MM 12:00:00 NR -16.61 63.44 717 628 __________P___ -1 -16.61 63.44 7 19 249
1852 SI MM 15:00:00 NR -16.95 62.51 619 524 __________P___ -1 -16.95 62.51 7 19 248
1852 SI MM 18:00:00 NR -17.30 61.60 516 414 __________O___ -1 -17.30 61.60 7 19 247
1852 SI MM 21:00:00 NR -17.68 60.69 414 329 __________P___ -1 -17.68 60.69 7 19 246
1852 SI MM 1852-01-04 00:00:00 NR -18.05 59.82 314 234 __________P___ -1 -18.05 59.82 7 18 246
1852 SI MM 03:00:00 NR -18.40 59.01 234 168 __________P___ -1 -18.40 59.01 7 16 246
1852 SI MM 06:00:00 NR -18.70 58.30 168 134 __________O___ -1 -18.70 58.30 7 13 248
1852 SI MM 09:00:00 NR -18.90 57.73 134 123 __________P___ -1 -18.90 57.73 7 10 251
1852 SI MM 12:00:00 NR -19.04 57.27 124 116 __________P___ -1 -19.04 57.27 7 9 252
1852 SI MM 15:00:00 NR -19.17 56.87 118 118 __________P___ -1 -19.17 56.87 7 8 251
1852 SI MM 18:00:00 NR -19.30 56.50 137 137 __________O___ -1 -19.30 56.50 7 8 247
1852 SI MM 21:00:00 NR -19.47 56.13 161 156 __________P___ -1 -19.47 56.13 7 8 243
1852 SI MM 1852-01-05 00:00:00 NR -19.65 55.76 145 134 __________P___ -1 -19.65 55.76 7 8 241
1852 SI MM 03:00:00 NR -19.86 55.36 123 105 __________P___ -1 -19.86 55.36 7 9 241
1852 SI MM 06:00:00 NR -20.10 54.90 108 103 __________O___ -1 -20.10 54.90 7 11 244
1852 SI MM 09:00:00 NR -20.35 54.31 121 121 __________P___ -1 -20.35 54.31 7 13 245
1852 SI MM 12:00:00 NR -20.63 53.66 165 165 __________P___ -1 -20.63 53.66 7 14 245
1852 SI MM 15:00:00 NR -20.95 52.98 229 229 __________P___ -1 -20.95 52.98 7 14 242
1852 SI MM 18:00:00 NR -21.30 52.30 301 301 __________O___ -1 -21.30 52.30 7 14 240
1852 SI MM 21:00:00 NR -21.68 51.64 340 289 __________P___ -1 -21.68 51.64 7 14 237
1852 SI MM 1852-01-06 00:00:00 NR -22.09 51.00 289 239 __________P___ -1 -22.09 51.00 7 14 233
1852 SI MM 03:00:00 NR -22.53 50.41 239 212 __________P___ -1 -22.53 50.41 7 14 228
1852 SI MM 06:00:00 NR -23.00 49.90 212 182 __________O___ -1 -23.00 49.90 7 13 223
1852 SI MM 09:00:00 NR -23.47 49.45 183 153 __________P___ -1 -23.47 49.45 7 12 218
1852 SI MM 12:00:00 NR -23.96 49.09 157 139 __________P___ -1 -23.96 49.09 7 12 210
1852 SI MM 15:00:00 NR -24.47 48.81 143 138 __________P___ -1 -24.47 48.81 7 11 203
1852 SI MM 18:00:00 NR -25.00 48.60 142 142 __________O___ -1 -25.00 48.60 7 12 197
1852 SI MM 21:00:00 NR -25.59 48.44 146 146 __________P___ -1 -25.59 48.44 7 12 191
1852 SI MM 1852-01-07 00:00:00 NR -26.19 48.34 179 179 __________P___ -1 -26.19 48.34 7 12 186
1852 SI MM 03:00:00 NR -26.74 48.30 220 220 __________P___ -1 -26.74 48.30 7 10 182
1852 SI MM 06:00:00 NR -27.20 48.30 268 268 __________O___ -1 -27.20 48.30 7 8 0
1852 SI MM 09:00:00 NR -27.51 48.29 297 297 __________P___ -1 -27.51 48.29 7 5 177
1852 SI MM 12:00:00 NR -27.72 48.31 316 316 __________P___ -1 -27.72 48.31 7 4 171
1852 SI MM 15:00:00 NR -27.87 48.35 340 340 __________P___ -1 -27.87 48.35 7 3 164
1852 SI MM 18:00:00 NR -28.00 48.40 350 350 __________O___ -1 -28.00 48.40 7 3 162
1852 SI MM 21:00:00 NR -28.14 48.45 365 365 __________P___ -1 -28.14 48.45 7 3 163
1852 SI MM 1852-01-08 00:00:00 NR -28.29 48.50 385 385 __________P___ -1 -28.29 48.50 7 3 164
1852 SI MM 03:00:00 NR -28.44 48.55 399 399 __________P___ -1 -28.44 48.55 7 3 165
1852 SI MM 06:00:00 NR -28.60 48.60 419 __________O___ -1 -28.60 48.60 7 3 168